Time;durP1;ratioP1;P1;durP2;ratioP2;P2;SDS_P1;SDS_P2;PMS_P1;PMS_P2;Temp;Humidity;BMP_temperature;BMP_pressure;BME280_temperature;BME280_humidity;BME280_pressure;Samples;Min_cycle;Max_cycle;Signal;HPM_P1;HPM_P2
2022/01/08 00:01:57;;;;;;;16.63;7.27;;;;;;;-3.49;69.92;100428.67;1765755;79;20933;-48
2022/01/08 00:04:23;;;;;;;15.37;6.67;;;;;;;-3.52;69.93;100427.74;1757755;80;20994;-48
2022/01/08 00:06:53;;;;;;;10.60;4.63;;;;;;;-3.53;70.03;100427.28;1759552;80;20915;-53
2022/01/08 00:09:19;;;;;;;7.57;2.73;;;;;;;-3.54;70.07;100422.45;1762185;80;20910;-51
2022/01/08 00:11:46;;;;;;;6.90;2.73;;;;;;;-3.55;70.04;100427.67;1760346;79;20967;-50
2022/01/08 00:14:14;;;;;;;6.30;2.93;;;;;;;-3.59;70.21;100428.49;1765757;80;20899;-52
2022/01/08 00:16:41;;;;;;;8.63;3.33;;;;;;;-3.58;70.39;100431.59;1762861;80;20918;-52
2022/01/08 00:19:07;;;;;;;5.47;2.03;;;;;;;-3.59;70.47;100437.27;1764156;79;21112;-50
2022/01/08 00:21:34;;;;;;;7.23;1.97;;;;;;;-3.57;70.57;100439.48;1756411;80;20934;-49
2022/01/08 00:24:00;;;;;;;8.63;2.87;;;;;;;-3.56;70.68;100440.37;1762450;80;20903;-51
2022/01/08 00:26:26;;;;;;;6.13;2.30;;;;;;;-3.57;70.84;100432.91;1762727;80;21396;-53
2022/01/08 00:28:53;;;;;;;10.30;3.60;;;;;;;-3.56;70.96;100437.31;1766446;79;20970;-49
2022/01/08 00:31:19;;;;;;;4.87;2.80;;;;;;;-3.55;70.95;100433.83;1720340;82;21421;-50
2022/01/08 00:33:47;;;;;;;4.30;1.93;;;;;;;-3.53;71.06;100442.64;1756443;80;20935;-50
2022/01/08 00:36:13;;;;;;;7.93;2.27;;;;;;;-3.51;71.18;100432.16;1755652;79;21353;-49
2022/01/08 00:38:40;;;;;;;7.37;2.43;;;;;;;-3.50;71.29;100418.14;1757922;80;21506;-52
2022/01/08 00:41:06;;;;;;;5.80;2.40;;;;;;;-3.47;71.32;100423.02;1757314;80;21061;-48
2022/01/08 00:43:32;;;;;;;6.60;2.43;;;;;;;-3.45;71.22;100425.25;1755698;80;21134;-50
2022/01/08 00:45:59;;;;;;;12.67;3.03;;;;;;;-3.44;71.09;100419.56;1754262;80;21092;-51
2022/01/08 00:48:25;;;;;;;9.13;3.10;;;;;;;-3.45;71.12;100416.04;1753910;80;21512;-47
2022/01/08 00:50:52;;;;;;;9.10;2.37;;;;;;;-3.44;71.12;100419.56;1753998;80;21070;-51
2022/01/08 00:53:19;;;;;;;6.87;2.93;;;;;;;-3.45;71.12;100422.62;1750601;80;21209;-49
2022/01/08 00:55:46;;;;;;;8.23;2.77;;;;;;;-3.45;71.12;100419.09;1755723;79;21131;-47
2022/01/08 00:58:12;;;;;;;5.00;2.20;;;;;;;-3.45;71.13;100410.77;1756801;79;21046;-51
2022/01/08 01:00:38;;;;;;;6.77;2.23;;;;;;;-3.45;70.97;100400.25;1750282;80;21089;-50
2022/01/08 01:03:05;;;;;;;7.33;2.60;;;;;;;-3.50;70.95;100379.98;1750866;80;21109;-48
2022/01/08 01:05:31;;;;;;;6.93;2.43;;;;;;;-3.58;71.12;100394.31;1692490;82;21127;-49
2022/01/08 01:07:58;;;;;;;8.87;2.67;;;;;;;-3.61;71.25;100406.09;1750321;79;21198;-47
2022/01/08 01:10:24;;;;;;;9.27;2.40;;;;;;;-3.61;71.18;100403.88;1688448;82;21110;-52
2022/01/08 01:12:51;;;;;;;6.63;2.63;;;;;;;-3.64;71.18;100406.45;1690085;82;21097;-50
2022/01/08 01:15:17;;;;;;;7.80;3.97;;;;;;;-3.63;71.23;100421.38;1751624;80;21430;-52
2022/01/08 01:17:45;;;;;;;12.50;3.90;;;;;;;-3.63;71.20;100421.38;1754629;80;21451;-52
2022/01/08 01:20:14;;;;;;;8.50;2.60;;;;;;;-3.63;71.12;100427.53;1689399;82;21158;-51
2022/01/08 01:23:03;;;;;;;4.63;2.23;;;;;;;-3.62;71.08;100440.27;1758170;80;20895;-49
2022/01/08 01:25:30;;;;;;;5.63;2.30;;;;;;;-3.64;71.17;100434.96;1688762;82;21561;-50
2022/01/08 01:28:10;;;;;;;5.57;1.63;;;;;;;-3.64;71.32;100434.96;1746339;80;21081;-51
2022/01/08 01:42:09;;;;;;;5.03;1.93;;;;;;;-3.55;71.52;100421.09;1759022;80;21072;-50
2022/01/08 01:47:02;;;;;;;6.47;2.40;;;;;;;-3.54;71.50;100421.55;1759229;79;21628;-51
2022/01/08 01:49:34;;;;;;;5.87;2.27;;;;;;;-3.53;71.56;100418.07;1760716;80;21527;-50
2022/01/08 01:52:01;;;;;;;5.80;1.67;;;;;;;-3.50;71.45;100420.34;1762553;80;22293;-52
2022/01/08 01:54:28;;;;;;;5.93;1.83;;;;;;;-3.50;71.45;100416.40;1757910;79;21073;-49
2022/01/08 01:56:57;;;;;;;6.33;1.93;;;;;;;-3.47;71.42;100406.33;1760575;79;21081;-50
2022/01/08 01:59:28;;;;;;;7.03;1.70;;;;;;;-3.46;71.36;100397.16;1695414;82;21156;-51
2022/01/08 02:01:54;;;;;;;7.07;1.80;;;;;;;-3.43;71.34;100406.86;1760708;80;21582;-48
2022/01/08 02:04:21;;;;;;;8.17;2.20;;;;;;;-3.41;71.28;100406.89;1760796;80;21089;-51
2022/01/08 02:06:47;;;;;;;3.57;1.60;;;;;;;-3.39;71.17;100396.83;1698553;82;21095;-52
2022/01/08 02:09:14;;;;;;;6.27;2.30;;;;;;;-3.38;71.08;100401.66;1758757;80;21029;-49
2022/01/08 02:12:02;;;;;;;6.57;2.17;;;;;;;-3.39;70.99;100391.98;1763731;80;21791;-47
2022/01/08 02:14:31;;;;;;;10.43;2.73;;;;;;;-3.40;70.96;100391.56;1761210;80;21069;-49
2022/01/08 02:16:57;;;;;;;9.07;3.07;;;;;;;-3.41;70.89;100392.42;1768525;80;21401;-52
2022/01/08 02:19:24;;;;;;;7.73;2.60;;;;;;;-3.42;70.65;100399.42;1762426;79;21124;-48
2022/01/08 02:21:56;;;;;;;8.13;2.90;;;;;;;-3.46;70.50;100392.31;1764029;80;21073;-52
2022/01/08 02:24:22;;;;;;;8.37;2.67;;;;;;;-3.49;70.45;100399.72;1759692;80;21097;-52
2022/01/08 02:26:49;;;;;;;10.20;4.03;;;;;;;-3.53;70.42;100392.64;1764291;79;21521;-50
2022/01/08 02:29:17;;;;;;;13.17;5.17;;;;;;;-3.55;70.32;100396.09;1703293;82;21059;-50
2022/01/08 02:32:08;;;;;;;8.87;3.50;;;;;;;-3.59;70.22;100396.48;1750921;80;21580;-49
2022/01/08 02:34:37;;;;;;;10.40;4.60;;;;;;;-3.63;70.19;100391.12;1759247;80;20903;-50
2022/01/08 02:37:04;;;;;;;9.03;3.03;;;;;;;-3.67;70.15;100385.36;1755191;79;21074;-50
2022/01/08 02:39:37;;;;;;;8.53;2.70;;;;;;;-3.71;70.28;100375.20;1749920;80;21134;-52
2022/01/08 02:41:59;;;;;;;7.70;2.93;;;;;;;-3.74;70.30;100378.22;1750432;79;21265;-49
2022/01/08 02:44:27;;;;;;;4.83;1.90;;;;;;;-3.77;70.41;100378.14;1754161;80;20919;-50
2022/01/08 02:46:53;;;;;;;6.97;3.23;;;;;;;-3.78;70.41;100376.37;1759208;80;21044;-50
2022/01/08 02:49:21;;;;;;;9.00;2.07;;;;;;;-3.79;70.39;100382.06;1750975;80;22263;-48
2022/01/08 02:51:48;;;;;;;7.07;3.20;;;;;;;-3.79;70.35;100382.48;1752049;80;21018;-48
2022/01/08 02:54:14;;;;;;;6.77;3.07;;;;;;;-3.82;70.26;100384.19;1752461;80;20946;-48
2022/01/08 02:56:42;;;;;;;7.93;4.50;;;;;;;-3.83;70.17;100378.47;1757816;80;21362;-47
2022/01/08 02:59:09;;;;;;;9.97;4.90;;;;;;;-3.84;70.14;100387.25;1756831;80;20931;-49
2022/01/08 03:01:36;;;;;;;13.83;5.57;;;;;;;-3.85;69.99;100381.95;1756885;80;21450;-49
2022/01/08 03:04:03;;;;;;;9.63;5.53;;;;;;;-3.88;69.91;100398.97;1752824;80;21389;-47
2022/01/08 03:06:29;;;;;;;11.47;5.93;;;;;;;-3.91;69.85;100392.33;1756104;80;21411;-48
2022/01/08 03:08:56;;;;;;;9.90;4.77;;;;;;;-3.94;69.91;100403.70;1754947;80;21571;-52
2022/01/08 03:11:22;;;;;;;8.80;4.80;;;;;;;-3.96;69.91;100400.56;1758424;80;20895;-48
2022/01/08 03:13:48;;;;;;;15.10;4.13;;;;;;;-3.99;69.88;100397.86;1757569;80;21096;-48
2022/01/08 03:16:15;;;;;;;8.37;3.97;;;;;;;-4.00;69.99;100397.44;1752841;80;21049;-51
2022/01/08 03:18:41;;;;;;;5.60;3.23;;;;;;;-4.02;70.04;100401.77;1755993;80;20911;-48
2022/01/08 03:21:16;;;;;;;11.33;3.93;;;;;;;-4.04;70.03;100401.73;1755304;80;20898;-50
2022/01/08 03:23:49;;;;;;;10.45;4.22;;;;;;;-4.05;69.96;100405.21;1694542;82;20953;-47
2022/01/08 03:26:16;;;;;;;10.33;3.50;;;;;;;-4.07;69.93;100399.45;1752445;80;22045;-49
2022/01/08 03:28:43;;;;;;;9.27;3.20;;;;;;;-4.08;69.88;100402.50;1753887;80;21798;-50
2022/01/08 03:31:10;;;;;;;8.60;3.30;;;;;;;-4.08;69.76;100403.82;1755773;79;21436;-50
2022/01/08 03:33:36;;;;;;;6.37;2.47;;;;;;;-4.10;69.75;100398.09;1755257;80;21358;-49
2022/01/08 03:36:04;;;;;;;7.73;3.87;;;;;;;-4.14;69.75;100400.19;1750661;80;21141;-48
2022/01/08 03:38:31;;;;;;;6.23;2.90;;;;;;;-4.15;69.80;100391.83;1747189;80;21105;-52
2022/01/08 03:40:57;;;;;;;5.97;2.90;;;;;;;-4.17;69.87;100393.57;1754102;80;21073;-46
2022/01/08 03:46:00;;;;;;;7.73;3.17;;;;;;;-4.17;70.08;100389.20;1755756;79;25593;-49
2022/01/08 03:48:32;;;;;;;6.97;3.43;;;;;;;-4.22;70.10;100384.25;1738668;80;21093;-51
2022/01/08 03:50:57;;;;;;;14.27;6.00;;;;;;;-4.22;70.11;100379.89;1748261;80;21200;-52
2022/01/08 03:53:24;;;;;;;15.53;5.77;;;;;;;-4.23;70.20;100376.80;1739422;80;20975;-50
2022/01/08 03:55:50;;;;;;;12.63;6.03;;;;;;;-4.23;70.05;100368.02;1736492;80;21283;-52
2022/01/08 03:58:17;;;;;;;18.13;8.27;;;;;;;-4.22;69.97;100375.05;1728868;81;21093;-48
2022/01/08 04:00:43;;;;;;;19.30;8.73;;;;;;;-4.25;69.95;100368.41;1739585;80;21073;-49
2022/01/08 04:03:09;;;;;;;20.00;9.63;;;;;;;-4.26;70.01;100372.81;1729683;80;22500;-51
2022/01/08 04:05:36;;;;;;;26.23;11.60;;;;;;;-4.27;69.97;100388.12;1727273;81;21172;-52
2022/01/08 04:08:02;;;;;;;31.00;17.17;;;;;;;-4.27;69.90;100381.97;1732005;80;21105;-50
2022/01/08 04:10:29;;;;;;;31.00;15.77;;;;;;;-4.32;69.85;100378.34;1728718;81;21645;-49
2022/01/08 04:13:01;;;;;;;32.60;15.23;;;;;;;-4.36;69.94;100385.29;1728937;80;21109;-50
2022/01/08 04:17:53;;;;;;;39.03;16.73;;;;;;;-4.42;70.02;100385.59;1733314;81;20931;-49
2022/01/08 04:20:20;;;;;;;44.07;17.77;;;;;;;-4.44;70.15;100388.18;1731034;81;20909;-49
2022/01/08 04:22:49;;;;;;;41.87;15.00;;;;;;;-4.48;70.30;100379.75;1729648;81;22324;-48
2022/01/08 04:25:20;;;;;;;35.97;12.30;;;;;;;-4.48;70.44;100389.37;1727665;81;21081;-52
2022/01/08 04:27:47;;;;;;;36.17;13.83;;;;;;;-4.49;70.60;100399.00;1731954;81;21757;-48
2022/01/08 04:30:15;;;;;;;31.97;11.23;;;;;;;-4.50;70.73;100391.97;1727741;81;21022;-49
2022/01/08 04:32:41;;;;;;;21.93;8.93;;;;;;;-4.50;70.80;100397.22;1728090;81;21058;-52
2022/01/08 04:35:09;;;;;;;16.70;5.23;;;;;;;-4.49;70.86;100396.37;1731681;81;21097;-50
2022/01/08 04:37:36;;;;;;;13.07;5.47;;;;;;;-4.48;71.05;100392.89;1731045;81;21804;-48
2022/01/08 04:40:04;;;;;;;14.97;4.07;;;;;;;-4.46;71.21;100394.25;1729353;81;21143;-49
2022/01/08 04:42:31;;;;;;;7.43;2.47;;;;;;;-4.45;71.33;100388.14;1731539;81;21338;-50
2022/01/08 04:44:57;;;;;;;6.13;2.40;;;;;;;-4.41;71.48;100386.91;1725797;81;22151;-50
2022/01/08 04:47:24;;;;;;;6.20;2.80;;;;;;;-4.38;71.54;100386.10;1725139;82;21070;-50
2022/01/08 04:49:50;;;;;;;12.03;2.70;;;;;;;-4.38;71.55;100380.42;1718672;82;21145;-51
2022/01/08 04:52:16;;;;;;;5.47;2.60;;;;;;;-4.37;71.61;100378.26;1716496;82;21106;-52
2022/01/08 04:54:43;;;;;;;5.77;2.27;;;;;;;-4.33;71.65;100383.13;1718417;82;21053;-51
2022/01/08 04:57:09;;;;;;;6.70;3.07;;;;;;;-4.31;71.60;100384.06;1714550;80;21097;-48
2022/01/08 04:59:35;;;;;;;7.57;2.57;;;;;;;-4.29;71.58;100390.25;1717552;82;21086;-50
2022/01/08 05:02:02;;;;;;;9.93;3.27;;;;;;;-4.27;71.59;100384.60;1715104;81;21077;-49
2022/01/08 05:04:29;;;;;;;9.50;3.17;;;;;;;-4.23;71.57;100383.79;1716850;82;21603;-51
2022/01/08 05:06:55;;;;;;;9.40;3.90;;;;;;;-4.22;71.51;100385.14;1713981;82;21519;-51
2022/01/08 05:09:22;;;;;;;7.00;2.80;;;;;;;-4.20;71.46;100385.18;1712522;82;21183;-49
2022/01/08 05:11:49;;;;;;;10.67;3.97;;;;;;;-4.19;71.41;100383.02;1718229;82;21069;-48
2022/01/08 05:14:15;;;;;;;12.63;4.60;;;;;;;-4.20;71.36;100383.44;1717463;82;21101;-51
2022/01/08 05:16:44;;;;;;;17.10;5.93;;;;;;;-4.18;71.29;100390.48;1713666;82;22189;-48
2022/01/08 05:19:10;;;;;;;16.27;5.50;;;;;;;-4.20;71.21;100386.07;1718510;82;20939;-50
2022/01/08 05:21:38;;;;;;;17.33;6.27;;;;;;;-4.21;71.19;100386.92;1720049;82;20988;-48
2022/01/08 05:24:05;;;;;;;24.43;8.70;;;;;;;-4.22;71.11;100386.88;1715688;82;21686;-52
2022/01/08 05:26:31;;;;;;;29.67;8.33;;;;;;;-4.25;71.10;100390.75;1716611;82;21010;-53
2022/01/08 05:28:58;;;;;;;27.17;9.63;;;;;;;-4.27;71.08;100385.91;1715165;82;21224;-49
2022/01/08 05:31:24;;;;;;;42.37;13.50;;;;;;;-4.28;71.03;100388.08;1720868;82;21039;-52
2022/01/08 05:33:51;;;;;;;43.80;14.53;;;;;;;-4.30;70.98;100395.03;1714139;82;20999;-52
2022/01/08 05:36:17;;;;;;;52.67;17.27;;;;;;;-4.32;70.94;100396.73;1714470;82;22316;-49
2022/01/08 05:38:44;;;;;;;55.00;16.70;;;;;;;-4.36;70.87;100398.86;1717403;82;21054;-50
2022/01/08 05:41:10;;;;;;;48.87;16.03;;;;;;;-4.38;70.89;100404.08;1717679;82;21143;-51
2022/01/08 05:43:37;;;;;;;57.33;17.70;;;;;;;-4.42;70.90;100402.22;1715406;82;21138;-49
2022/01/08 05:46:03;;;;;;;55.10;17.23;;;;;;;-4.43;70.85;100398.27;1712390;82;21112;-51
2022/01/08 05:48:29;;;;;;;54.40;18.37;;;;;;;-4.44;70.87;100405.69;1715867;82;21677;-51
2022/01/08 05:50:56;;;;;;;53.93;17.07;;;;;;;-4.47;70.83;100408.23;1711501;82;21073;-50
2022/01/08 05:53:22;;;;;;;54.80;19.47;;;;;;;-4.49;70.83;100408.20;1714246;82;21064;-51
2022/01/08 05:55:49;;;;;;;55.63;17.40;;;;;;;-4.50;70.77;100406.84;1714939;82;21159;-50
2022/01/08 05:58:16;;;;;;;51.40;17.47;;;;;;;-4.53;70.71;100407.69;1723834;82;20927;-50
2022/01/08 06:00:42;;;;;;;51.57;17.57;;;;;;;-4.53;70.66;100415.98;1723718;81;20898;-49
2022/01/08 06:03:09;;;;;;;56.70;18.80;;;;;;;-4.55;70.62;100420.31;1720895;81;20946;-52
2022/01/08 06:05:35;;;;;;;58.60;18.07;;;;;;;-4.55;70.59;100422.94;1720940;82;20938;-49
2022/01/08 06:08:02;;;;;;;42.77;15.27;;;;;;;-4.55;70.68;100421.62;1719365;82;20907;-51
2022/01/08 06:10:28;;;;;;;35.87;11.03;;;;;;;-4.54;70.72;100423.41;1720991;82;21247;-47
2022/01/08 06:12:55;;;;;;;27.50;8.57;;;;;;;-4.54;70.75;100416.84;1723126;82;20961;-48
2022/01/08 06:15:21;;;;;;;24.30;9.50;;;;;;;-4.56;70.77;100420.73;1718055;82;20978;-49
2022/01/08 06:17:47;;;;;;;24.47;9.00;;;;;;;-4.56;70.79;100416.80;1723155;82;21464;-48
2022/01/08 06:20:14;;;;;;;17.07;6.40;;;;;;;-4.52;70.79;100416.45;1720360;82;21535;-48
2022/01/08 06:22:40;;;;;;;10.37;3.73;;;;;;;-4.49;70.81;100420.45;1718579;82;20934;-48
2022/01/08 06:25:07;;;;;;;5.30;2.17;;;;;;;-4.47;70.80;100417.01;1721978;82;20958;-50
2022/01/08 06:27:34;;;;;;;7.33;2.77;;;;;;;-4.45;70.91;100420.98;1716532;82;21464;-51
2022/01/08 06:30:02;;;;;;;6.20;2.27;;;;;;;-4.41;71.03;100416.25;1721411;81;21082;-51
2022/01/08 06:32:29;;;;;;;6.70;2.30;;;;;;;-4.39;71.06;100410.61;1716574;82;20902;-47
2022/01/08 06:34:56;;;;;;;9.43;2.20;;;;;;;-4.35;71.11;100411.15;1718564;82;20985;-52
2022/01/08 06:37:22;;;;;;;4.23;1.70;;;;;;;-4.33;71.14;100410.30;1720358;82;21365;-48
2022/01/08 06:39:49;;;;;;;4.77;1.80;;;;;;;-4.28;71.19;100411.73;1720322;81;21539;-48
2022/01/08 06:42:15;;;;;;;3.53;1.40;;;;;;;-4.24;71.14;100405.67;1719328;81;21104;-47
2022/01/08 06:44:42;;;;;;;4.67;1.73;;;;;;;-4.20;71.12;100415.41;1720722;82;21077;-49
2022/01/08 06:47:08;;;;;;;4.07;1.30;;;;;;;-4.18;71.00;100408.88;1736857;82;21034;-47
2022/01/08 06:49:34;;;;;;;6.47;1.77;;;;;;;-4.15;71.00;100412.87;1730759;82;21066;-48
2022/01/08 06:52:01;;;;;;;2.60;1.50;;;;;;;-4.12;70.96;100416.89;1730158;82;21121;-49
2022/01/08 06:54:27;;;;;;;3.53;1.40;;;;;;;-4.08;71.04;100417.42;1724400;82;21136;-51
2022/01/08 06:56:54;;;;;;;2.90;1.27;;;;;;;-4.03;71.06;100425.86;1726425;81;21094;-51
2022/01/08 06:59:20;;;;;;;3.03;1.20;;;;;;;-3.96;71.11;100425.55;1725357;82;21423;-49
2022/01/08 07:01:46;;;;;;;4.90;1.23;;;;;;;-3.92;71.10;100424.77;1729755;82;21047;-46
2022/01/08 07:04:13;;;;;;;4.30;1.43;;;;;;;-3.88;71.08;100417.39;1722167;82;21310;-50
2022/01/08 07:06:39;;;;;;;4.33;1.20;;;;;;;-3.85;71.08;100419.66;1728511;82;21905;-53
2022/01/08 07:09:06;;;;;;;3.13;1.27;;;;;;;-3.79;71.11;100418.89;1725416;81;21612;-50
2022/01/08 07:11:33;;;;;;;2.60;1.13;;;;;;;-3.74;71.13;100422.48;1725905;82;21276;-49
2022/01/08 07:13:59;;;;;;;2.97;1.47;;;;;;;-3.67;71.18;100415.62;1726805;81;21117;-49
2022/01/08 07:16:25;;;;;;;4.53;1.30;;;;;;;-3.61;71.16;100417.05;1728571;82;21066;-49
2022/01/08 07:18:52;;;;;;;3.43;1.10;;;;;;;-3.56;71.14;100427.21;1725686;82;22144;-49
2022/01/08 07:21:18;;;;;;;2.87;1.40;;;;;;;-3.48;71.12;100421.23;1722827;82;21038;-49
2022/01/08 07:23:44;;;;;;;3.83;1.47;;;;;;;-3.41;71.11;100422.26;1724568;82;21073;-48
2022/01/08 07:26:10;;;;;;;2.47;1.20;;;;;;;-3.32;71.10;100418.91;1730942;80;21058;-48
2022/01/08 07:28:39;;;;;;;4.67;1.83;;;;;;;-3.24;71.08;100423.87;1734073;80;21081;-49
2022/01/08 07:31:05;;;;;;;8.67;1.10;;;;;;;-3.17;71.00;100419.17;1730711;80;21212;-48
2022/01/08 07:33:31;;;;;;;3.73;1.40;;;;;;;-3.07;70.99;100417.16;1730104;82;21082;-48
2022/01/08 07:35:58;;;;;;;3.10;1.37;;;;;;;-3.00;70.97;100422.98;1729401;82;21189;-49
2022/01/08 07:38:24;;;;;;;5.00;1.40;;;;;;;-2.91;70.90;100420.92;1730888;82;21124;-48
2022/01/08 07:40:52;;;;;;;3.30;1.47;;;;;;;-2.84;70.80;100426.31;1728163;82;21089;-51
2022/01/08 07:43:20;;;;;;;5.13;2.07;;;;;;;-2.78;70.76;100421.56;1728724;82;21093;-48
2022/01/08 07:45:46;;;;;;;6.80;1.70;;;;;;;-2.71;70.72;100422.11;1727256;82;21042;-49
2022/01/08 07:48:13;;;;;;;2.27;1.20;;;;;;;-2.63;70.59;100418.27;1727418;82;21455;-47
2022/01/08 07:50:39;;;;;;;3.60;1.43;;;;;;;-2.57;70.53;100406.52;1732230;80;21093;-49
2022/01/08 07:53:05;;;;;;;3.27;1.50;;;;;;;-2.51;70.48;100412.77;1728672;81;21038;-49
2022/01/08 07:55:32;;;;;;;2.17;1.07;;;;;;;-2.43;70.42;100404.53;1729080;81;21100;-48
2022/01/08 07:57:58;;;;;;;3.10;1.00;;;;;;;-2.36;70.27;100397.16;1723522;82;21050;-49
2022/01/08 08:00:24;;;;;;;5.63;1.60;;;;;;;-2.27;70.03;100402.98;1725422;82;21041;-48
2022/01/08 08:02:50;;;;;;;2.03;1.03;;;;;;;-2.20;69.87;100399.99;1731718;80;21768;-48
2022/01/08 08:05:17;;;;;;;3.67;1.30;;;;;;;-2.13;69.89;100403.20;1727017;82;21077;-52
2022/01/08 08:07:43;;;;;;;2.07;1.00;;;;;;;-2.06;69.73;100396.69;1724829;82;22355;-47
2022/01/08 08:10:13;;;;;;;3.30;0.90;;;;;;;-1.98;69.71;100396.35;1724110;82;21050;-51
2022/01/08 08:12:40;;;;;;;2.20;1.10;;;;;;;-1.90;69.53;100393.80;1722207;82;21536;-51
2022/01/08 08:15:09;;;;;;;3.73;1.17;;;;;;;-1.81;69.37;100388.64;1726801;82;22676;-50
2022/01/08 08:17:35;;;;;;;4.63;1.40;;;;;;;-1.73;69.25;100380.80;1727909;82;21140;-51
2022/01/08 08:20:04;;;;;;;2.47;1.00;;;;;;;-1.64;69.05;100384.43;1727739;82;21160;-50
2022/01/08 08:22:31;;;;;;;1.80;0.90;;;;;;;-1.56;68.90;100385.83;1727430;82;20939;-50
2022/01/08 08:24:57;;;;;;;2.77;0.90;;;;;;;-1.46;68.62;100388.13;1722157;82;21133;-51
2022/01/08 08:27:24;;;;;;;3.70;0.80;;;;;;;-1.39;68.43;100392.59;1725705;80;20996;-49
2022/01/08 08:29:50;;;;;;;3.20;0.93;;;;;;;-1.32;68.17;100383.86;1726418;82;21435;-52
2022/01/08 08:32:16;;;;;;;2.73;0.73;;;;;;;-1.25;67.98;100383.04;1731956;80;21538;-52
2022/01/08 08:34:42;;;;;;;1.50;0.67;;;;;;;-1.16;67.72;100379.16;1724422;82;21550;-51
2022/01/08 08:37:08;;;;;;;1.63;0.90;;;;;;;-1.08;67.47;100380.11;1732894;80;21128;-49
2022/01/08 08:39:35;;;;;;;2.17;0.80;;;;;;;-1.01;67.31;100375.76;1727291;80;21047;-50
2022/01/08 08:42:01;;;;;;;3.33;0.90;;;;;;;-0.96;67.14;100377.59;1728515;80;21062;-48
2022/01/08 08:44:28;;;;;;;1.87;0.70;;;;;;;-0.88;66.79;100373.24;1732299;80;21158;-50
2022/01/08 08:46:54;;;;;;;2.70;1.00;;;;;;;-0.82;66.57;100369.31;1728952;80;21038;-50
2022/01/08 08:49:20;;;;;;;1.87;0.77;;;;;;;-0.74;66.44;100368.48;1725804;80;21110;-51
2022/01/08 08:51:47;;;;;;;3.07;0.77;;;;;;;-0.69;66.15;100363.69;1725489;80;21014;-51
2022/01/08 08:54:14;;;;;;;1.47;0.80;;;;;;;-0.63;65.85;100372.09;1726025;80;21101;-48
2022/01/08 08:56:42;;;;;;;2.20;0.70;;;;;;;-0.57;65.66;100366.83;1721648;80;21128;-50
2022/01/08 08:59:09;;;;;;;2.20;0.80;;;;;;;-0.52;65.24;100358.08;1729340;80;21081;-50
2022/01/08 09:01:36;;;;;;;3.37;0.80;;;;;;;-0.47;64.92;100366.02;1729349;80;20959;-50
2022/01/08 09:04:03;;;;;;;4.70;0.70;;;;;;;-0.42;64.85;100360.30;1721925;80;20923;-51
2022/01/08 09:06:30;;;;;;;3.73;0.80;;;;;;;-0.37;64.49;100360.34;1719972;80;20947;-50
2022/01/08 09:08:56;;;;;;;2.80;0.80;;;;;;;-0.32;64.21;100350.66;1727197;80;21122;-50
2022/01/08 09:11:23;;;;;;;1.97;0.90;;;;;;;-0.27;64.14;100348.51;1722702;80;21816;-53
2022/01/08 09:13:49;;;;;;;10.03;1.00;;;;;;;-0.20;63.87;100348.97;1726601;80;21576;-52
2022/01/08 09:16:16;;;;;;;2.63;0.80;;;;;;;-0.14;63.60;100336.20;1720803;80;21366;-52
2022/01/08 09:18:43;;;;;;;2.00;0.77;;;;;;;-0.07;63.33;100344.16;1731365;80;21468;-52
2022/01/08 09:21:12;;;;;;;2.23;0.83;;;;;;;0.00;63.08;100344.63;1724002;80;21488;-53
2022/01/08 09:23:41;;;;;;;2.13;0.83;;;;;;;0.06;62.73;100336.28;1727433;80;21152;-52
2022/01/08 09:26:08;;;;;;;1.77;0.90;;;;;;;0.11;62.46;100328.79;1720826;80;21007;-50
2022/01/08 09:28:34;;;;;;;2.00;0.77;;;;;;;0.17;62.27;100329.27;1722620;80;21012;-50
2022/01/08 09:31:02;;;;;;;3.40;0.80;;;;;;;0.23;61.96;100335.89;1719507;80;20963;-48
2022/01/08 09:33:31;;;;;;;1.63;0.77;;;;;;;0.26;61.01;100323.97;1722205;80;21103;-51
2022/01/08 09:35:57;;;;;;;0.87;0.60;;;;;;;0.30;60.62;100328.41;1716590;80;21565;-51
2022/01/08 09:38:23;;;;;;;1.53;0.60;;;;;;;0.32;60.18;100322.68;1733402;80;21320;-49
2022/01/08 09:40:50;;;;;;;1.70;0.60;;;;;;;0.35;59.83;100323.55;1723527;80;21330;-50
2022/01/08 09:43:17;;;;;;;1.60;0.60;;;;;;;0.37;59.41;100318.27;1724986;80;21776;-49
2022/01/08 09:45:44;;;;;;;0.80;0.50;;;;;;;0.40;59.28;100321.37;1726723;80;21096;-49
2022/01/08 09:48:11;;;;;;;1.07;0.53;;;;;;;0.44;58.66;100317.82;1722339;80;21043;-50
2022/01/08 09:50:37;;;;;;;1.30;0.50;;;;;;;0.46;58.37;100304.15;1729543;80;21027;-49
2022/01/08 09:53:05;;;;;;;1.57;0.50;;;;;;;0.47;58.17;100299.30;1727276;80;21062;-51
2022/01/08 09:55:32;;;;;;;0.90;0.73;;;;;;;0.43;57.86;100297.07;1725999;80;21070;-51
2022/01/08 09:57:59;;;;;;;3.20;0.60;;;;;;;0.43;57.71;100301.48;1724546;80;21548;-50
2022/01/08 10:00:25;;;;;;;1.17;0.50;;;;;;;0.42;57.72;100299.75;1730535;80;21027;-51
2022/01/08 10:02:52;;;;;;;1.67;0.50;;;;;;;0.42;57.52;100296.66;1731987;80;21103;-50
2022/01/08 10:05:18;;;;;;;2.27;0.53;;;;;;;0.40;57.28;100294.88;1727609;80;21134;-51
2022/01/08 10:07:59;;;;;;;2.20;1.80;;;;;;;0.37;57.40;100290.45;1727975;80;21131;-52
2022/01/08 10:10:27;;;;;;;1.27;0.40;;;;;;;0.37;57.46;100284.72;1724154;80;21138;-50
2022/01/08 10:13:00;;;;;;;1.00;0.50;;;;;;;0.37;57.26;100283.39;1716290;80;21058;-51
2022/01/08 10:18:36;;;;;;;0.60;0.40;;;;;;;0.34;56.62;100277.23;1722089;80;21121;-51
2022/01/08 10:21:29;;;;;;;0.80;0.50;;;;;;;0.32;56.39;100280.31;1739929;80;21097;-52
2022/01/08 10:24:00;;;;;;;0.90;0.43;;;;;;;0.31;56.61;100276.78;1735433;80;23331;-50
2022/01/08 10:26:32;;;;;;;0.80;0.50;;;;;;;0.30;56.44;100282.95;1724797;80;21073;-51
2022/01/08 10:29:01;;;;;;;0.73;0.40;;;;;;;0.31;56.37;100278.54;1730541;80;21055;-49
2022/01/08 10:31:45;;;;;;;0.80;0.40;;;;;;;0.32;55.97;100271.05;1730544;80;21517;-51
2022/01/08 10:34:18;;;;;;;0.78;0.40;;;;;;;0.31;56.02;100271.92;1721086;80;21618;-51
2022/01/08 10:37:04;;;;;;;0.70;0.40;;;;;;;0.30;55.95;100259.12;1717986;80;21816;-51
2022/01/08 10:39:38;;;;;;;2.40;0.30;;;;;;;0.31;55.76;100260.00;1721835;80;21472;-51
2022/01/08 10:42:16;;;;;;;;;;;;;;;0.31;55.46;100257.36;1727727;80;22390;-52
2022/01/08 10:44:46;;;;;;;0.50;0.40;;;;;;;0.29;55.40;100269.70;1720623;80;20120;-52
2022/01/08 10:47:17;;;;;;;2.17;0.43;;;;;;;0.27;55.60;100272.34;1722892;80;21034;-52
2022/01/08 10:49:49;;;;;;;2.23;0.47;;;;;;;0.27;55.57;100278.08;1723762;81;21013;-49
2022/01/08 10:52:20;;;;;;;0.70;0.40;;;;;;;0.26;55.64;100269.69;1720662;81;21033;-51
2022/01/08 10:55:00;;;;;;;1.33;0.50;;;;;;;0.25;55.49;100261.33;1719291;81;22377;-52
2022/01/08 10:57:39;;;;;;;0.73;0.40;;;;;;;0.26;55.56;100256.01;1727272;81;21147;-51
2022/01/08 11:00:11;;;;;;;1.07;0.40;;;;;;;0.26;55.62;100259.09;1720732;81;21084;-52
2022/01/08 11:02:39;;;;;;;1.73;0.90;;;;;;;0.28;55.71;100257.34;1720689;81;21128;-52
2022/01/08 11:05:07;;;;;;;1.40;0.90;;;;;;;0.31;55.84;100265.30;1718705;81;21126;-52
2022/01/08 11:07:35;;;;;;;2.40;0.70;;;;;;;0.32;55.83;100263.09;1718486;81;21068;-50
2022/01/08 11:10:11;;;;;;;1.87;0.50;;;;;;;0.32;55.82;100253.83;1718962;81;21526;-52
2022/01/08 11:12:42;;;;;;;2.30;0.73;;;;;;;0.30;55.78;100244.99;1726802;81;21084;-51
2022/01/08 11:17:55;;;;;;;2.63;0.40;;;;;;;0.27;55.86;100233.95;1724306;81;21041;-52
2022/01/08 11:20:28;;;;;;;0.80;0.43;;;;;;;0.25;56.05;100220.30;1718551;81;21387;-53
2022/01/08 11:22:58;;;;;;;1.30;0.40;;;;;;;0.26;56.20;100226.88;1716515;81;21053;-53
2022/01/08 11:25:30;;;;;;;1.03;0.40;;;;;;;0.27;56.16;100210.13;1722843;81;21116;-52
2022/01/08 11:28:16;;;;;;;1.67;0.50;;;;;;;0.27;56.14;100210.56;1723314;81;21527;-53
2022/01/08 11:30:58;;;;;;;0.93;0.60;;;;;;;0.29;56.31;100208.80;1719699;81;21292;-52
2022/01/08 11:33:29;;;;;;;1.53;1.07;;;;;;;0.30;56.25;100199.98;1717131;81;21041;-52
2022/01/08 11:35:54;;;;;;;1.93;1.00;;;;;;;0.29;56.35;100205.72;1720008;81;21650;-53
2022/01/08 11:38:22;;;;;;;1.10;0.80;;;;;;;0.28;56.31;100209.24;1718607;81;21065;-53
2022/01/08 11:40:50;;;;;;;1.20;0.50;;;;;;;0.27;56.16;100200.85;1716898;81;21126;-53
2022/01/08 11:43:21;;;;;;;2.00;0.50;;;;;;;0.26;55.91;100202.17;1722749;81;21167;-52
2022/01/08 11:46:02;;;;;;;2.10;0.40;;;;;;;0.22;55.96;100197.77;1722005;81;21372;-52
2022/01/08 11:48:37;;;;;;;2.17;0.50;;;;;;;0.19;55.96;100186.73;1723187;81;21094;-52
2022/01/08 11:51:06;;;;;;;1.70;0.40;;;;;;;0.16;56.10;100179.25;1718208;81;21052;-53
2022/01/08 11:53:34;;;;;;;1.47;0.47;;;;;;;0.11;56.04;100177.91;1726740;81;21114;-53